UAL837 KLAX-EGLL
Flight info
| Callsign | UAL837 |
|---|---|
| Flight time | N/A |
| Altitude | 35000 |
| Route | ORCKA5 LAS DCT BCE DCT MBW DCT RAP DCT DPR DCT GABOV DCT CHARN DCT HELMO DCT PELSI/M086F350 DCT RADUN DCT 61N050W 61N040W 60N030W 5830N02000W DCT SUNOT/N0492F350 DCT KESIX DCT MIMKU DCT KELLY L10 WAL UY53 NUGRA |
| Aircraft | B789/H-SDE1E2E3FGHIJ2J3J4J5M1RWXY/LB1D1 |
Departure
| Time | 2026-05-04 00:55 |
|---|---|
| Airport | Los Angeles International Airport (KLAX) |
Arrival
| Time | N/A |
|---|---|
| Airport | London Heathrow Airport (EGLL) |
| Time | Latitude | Longitude | Altitude | Speed | Heading |
|---|---|---|---|---|---|
| 2026-05-04 00:26 | 33.94184 | -118.39896 | 131 ft | 0 kts | 265° |
| 2026-05-04 00:43 | 33.94184 | -118.39891 | 131 ft | 3 kts | 262° |
| 2026-05-04 00:44 | 33.94187 | -118.39876 | 125 ft | 3 kts | 248° |
| 2026-05-04 00:44 | 33.94202 | -118.39850 | 125 ft | 3 kts | 219° |
| 2026-05-04 00:44 | 33.94218 | -118.39839 | 125 ft | 3 kts | 197° |
| 2026-05-04 00:44 | 33.94225 | -118.39836 | 125 ft | 0 kts | 188° |
| 2026-05-04 00:47 | 33.94206 | -118.39838 | 125 ft | 6 kts | 181° |
| 2026-05-04 00:47 | 33.94154 | -118.39834 | 127 ft | 9 kts | 175° |
| 2026-05-04 00:48 | 33.94079 | -118.39828 | 128 ft | 13 kts | 178° |
| 2026-05-04 00:48 | 33.94002 | -118.39808 | 128 ft | 9 kts | 142° |
| 2026-05-04 00:48 | 33.93991 | -118.39773 | 127 ft | 4 kts | 96° |
| 2026-05-04 00:48 | 33.93990 | -118.39724 | 131 ft | 7 kts | 85° |
| 2026-05-04 00:49 | 33.93997 | -118.39645 | 131 ft | 11 kts | 83° |
| 2026-05-04 00:49 | 33.93993 | -118.39549 | 127 ft | 9 kts | 125° |
| 2026-05-04 00:49 | 33.93955 | -118.39508 | 130 ft | 7 kts | 127° |
| 2026-05-04 00:49 | 33.93942 | -118.39471 | 125 ft | 3 kts | 104° |
| 2026-05-04 00:50 | 33.93940 | -118.39446 | 126 ft | 4 kts | 94° |
| 2026-05-04 00:50 | 33.93942 | -118.39392 | 127 ft | 9 kts | 86° |
| 2026-05-04 00:50 | 33.93950 | -118.39288 | 130 ft | 16 kts | 84° |
| 2026-05-04 00:50 | 33.93966 | -118.39136 | 127 ft | 21 kts | 82° |
| 2026-05-04 00:51 | 33.93987 | -118.38935 | 130 ft | 27 kts | 84° |
| 2026-05-04 00:51 | 33.94009 | -118.38707 | 129 ft | 25 kts | 82° |
| 2026-05-04 00:51 | 33.94035 | -118.38474 | 128 ft | 31 kts | 82° |
| 2026-05-04 00:51 | 33.94057 | -118.38257 | 129 ft | 19 kts | 83° |
| 2026-05-04 00:52 | 33.94075 | -118.38077 | 131 ft | 24 kts | 83° |
| 2026-05-04 00:52 | 33.94074 | -118.38056 | 131 ft | 1 kts | 105° |
| 2026-05-04 00:52 | 33.94061 | -118.38027 | 127 ft | 3 kts | 140° |
| 2026-05-04 00:52 | 33.94029 | -118.38013 | 128 ft | 9 kts | 162° |
| 2026-05-04 00:53 | 33.93970 | -118.38018 | 128 ft | 6 kts | 223° |
| 2026-05-04 00:53 | 33.93966 | -118.38044 | 127 ft | 4 kts | 277° |
| 2026-05-04 00:53 | 33.93972 | -118.38113 | 131 ft | 12 kts | 272° |
| 2026-05-04 00:53 | 33.93968 | -118.38240 | 126 ft | 18 kts | 258° |
| 2026-05-04 00:54 | 33.93955 | -118.38328 | 130 ft | 0 kts | 262° |
| 2026-05-04 00:54 | 33.93954 | -118.38331 | 130 ft | 5 kts | 262° |
| 2026-05-04 00:54 | 33.93921 | -118.38649 | 131 ft | 71 kts | 262° |
| 2026-05-04 00:54 | 33.93833 | -118.39479 | 133 ft | 127 kts | 262° |
| 2026-05-04 00:55 | 33.93727 | -118.40670 | 269 ft | 151 kts | 269° |
| 2026-05-04 00:55 | 33.93687 | -118.41961 | 768 ft | 150 kts | 265° |
| 2026-05-04 00:55 | 33.93649 | -118.43276 | 1228 ft | 165 kts | 266° |
| 2026-05-04 00:55 | 33.93585 | -118.44637 | 1929 ft | 164 kts | 264° |
| 2026-05-04 00:56 | 33.93413 | -118.46078 | 2299 ft | 185 kts | 261° |
| 2026-05-04 00:56 | 33.93251 | -118.47709 | 2587 ft | 207 kts | 263° |
| 2026-05-04 00:56 | 33.93066 | -118.49530 | 2959 ft | 229 kts | 262° |
| 2026-05-04 00:56 | 33.92851 | -118.51472 | 3687 ft | 233 kts | 262° |
| 2026-05-04 00:57 | 33.92634 | -118.53425 | 4403 ft | 239 kts | 262° |
| 2026-05-04 00:57 | 33.92413 | -118.55437 | 4969 ft | 249 kts | 262° |
| 2026-05-04 00:57 | 33.92183 | -118.57526 | 4994 ft | 250 kts | 262° |
| 2026-05-04 00:57 | 33.91949 | -118.59638 | 4939 ft | 260 kts | 262° |
| 2026-05-04 00:58 | 33.91711 | -118.61790 | 5123 ft | 261 kts | 262° |
| 2026-05-04 00:58 | 33.91469 | -118.63970 | 5337 ft | 263 kts | 262° |
| 2026-05-04 00:58 | 33.91226 | -118.66163 | 5551 ft | 265 kts | 263° |
| 2026-05-04 00:58 | 33.90980 | -118.68365 | 5765 ft | 266 kts | 263° |
| 2026-05-04 00:59 | 33.90738 | -118.70546 | 5989 ft | 266 kts | 263° |
| 2026-05-04 00:59 | 33.90489 | -118.72764 | 6213 ft | 267 kts | 262° |
| 2026-05-04 00:59 | 33.89850 | -118.74845 | 6452 ft | 270 kts | 230° |
| 2026-05-04 00:59 | 33.88301 | -118.76087 | 6745 ft | 278 kts | 196° |
| 2026-05-04 01:00 | 33.86367 | -118.76046 | 7036 ft | 286 kts | 162° |
| 2026-05-04 01:00 | 33.84732 | -118.74680 | 7356 ft | 294 kts | 128° |
| 2026-05-04 01:00 | 33.83849 | -118.72445 | 7646 ft | 300 kts | 108° |
| 2026-05-04 01:00 | 33.83346 | -118.70000 | 7897 ft | 302 kts | 103° |
| 2026-05-04 01:01 | 33.82944 | -118.67505 | 8146 ft | 302 kts | 102° |
| 2026-05-04 01:01 | 33.82577 | -118.65033 | 8393 ft | 303 kts | 102° |
| 2026-05-04 01:01 | 33.82224 | -118.62552 | 8728 ft | 302 kts | 102° |
| 2026-05-04 01:01 | 33.81880 | -118.60056 | 9068 ft | 304 kts | 102° |
| 2026-05-04 01:02 | 33.81542 | -118.57548 | 9385 ft | 305 kts | 101° |
| 2026-05-04 01:02 | 33.81205 | -118.55012 | 9692 ft | 308 kts | 102° |
| 2026-05-04 01:02 | 33.80873 | -118.52457 | 10000 ft | 309 kts | 102° |
| 2026-05-04 01:02 | 33.80547 | -118.49889 | 10278 ft | 310 kts | 102° |
| 2026-05-04 01:03 | 33.80228 | -118.47333 | 10558 ft | 312 kts | 102° |
| 2026-05-04 01:03 | 33.79909 | -118.44742 | 10856 ft | 312 kts | 101° |
| 2026-05-04 01:03 | 33.79593 | -118.42148 | 11172 ft | 313 kts | 101° |
| 2026-05-04 01:03 | 33.79282 | -118.39574 | 11484 ft | 316 kts | 101° |
| 2026-05-04 01:04 | 33.78969 | -118.36949 | 11807 ft | 317 kts | 102° |
| 2026-05-04 01:04 | 33.78660 | -118.34312 | 12112 ft | 320 kts | 101° |